createdAt,value
2022-08-24T00:03:57.738Z,16.12
2022-08-24T00:09:01.445Z,16.26
2022-08-24T00:14:04.243Z,16.34
2022-08-24T00:19:06.161Z,16.24
2022-08-24T00:24:08.114Z,16.30
2022-08-24T00:29:10.052Z,15.98
2022-08-24T00:34:13.812Z,15.64
2022-08-24T00:39:15.481Z,15.64
2022-08-24T00:44:18.917Z,15.88
2022-08-24T00:49:29.492Z,16.04
2022-08-24T00:54:36.748Z,16.04
2022-08-24T00:59:54.365Z,15.99
2022-08-24T01:04:59.737Z,16.01
2022-08-24T01:10:05.643Z,16.04
2022-08-24T01:15:10.247Z,16.02
2022-08-24T01:20:12.867Z,15.76
2022-08-24T01:25:15.011Z,15.57
2022-08-24T01:30:17.931Z,15.74
2022-08-24T01:35:23.003Z,15.83
2022-08-24T01:40:33.253Z,15.90
2022-08-24T01:45:34.982Z,15.75
2022-08-24T01:50:39.277Z,15.63
2022-08-24T01:55:44.787Z,15.64
2022-08-24T02:00:46.724Z,15.38
2022-08-24T02:05:49.153Z,15.34
2022-08-24T02:10:56.706Z,15.37
2022-08-24T02:15:59.307Z,15.34
2022-08-24T02:21:03.942Z,15.28
2022-08-24T02:26:07.808Z,15.11
2022-08-24T02:31:11.751Z,15.22
2022-08-24T02:36:26.114Z,15.18
2022-08-24T02:41:30.969Z,15.33
2022-08-24T02:46:33.250Z,15.32
2022-08-24T02:51:43.834Z,15.06
2022-08-24T02:56:48.130Z,14.90
2022-08-24T03:01:51.634Z,14.80
2022-08-24T03:06:55.123Z,14.97
2022-08-24T03:11:57.950Z,15.13
2022-08-24T03:16:59.671Z,15.07
2022-08-24T03:22:02.170Z,14.82
2022-08-24T03:27:04.277Z,14.78
2022-08-24T03:32:06.918Z,14.79
2022-08-24T03:37:09.498Z,14.87
2022-08-24T03:42:11.291Z,14.94
2022-08-24T03:47:13.368Z,14.96
2022-08-24T03:52:15.430Z,14.81
2022-08-24T03:57:19.220Z,14.83
2022-08-24T04:02:21.121Z,14.80
2022-08-24T04:07:23.351Z,14.83
2022-08-24T04:12:25.263Z,14.93
2022-08-24T04:17:28.740Z,15.04
2022-08-24T04:22:34.242Z,14.97
2022-08-24T04:27:40.332Z,14.71
2022-08-24T04:32:42.846Z,14.72
2022-08-24T04:37:44.662Z,14.84
2022-08-24T04:42:46.672Z,14.88
2022-08-24T04:47:50.595Z,14.82
2022-08-24T04:52:52.920Z,14.76
2022-08-24T04:57:54.765Z,14.77
2022-08-24T05:02:57.337Z,14.88
2022-08-24T05:08:00.241Z,14.91
2022-08-24T05:13:02.160Z,14.92
2022-08-24T05:18:05.033Z,14.93
2022-08-24T05:23:07.716Z,15.05
2022-08-24T05:28:10.134Z,15.23
2022-08-24T05:33:12.726Z,15.27
2022-08-24T05:38:14.802Z,15.23
2022-08-24T05:43:17.255Z,15.29
2022-08-24T05:48:19.133Z,15.52
2022-08-24T05:53:39.585Z,15.70
2022-08-24T05:58:42.091Z,15.85
2022-08-24T06:03:44.451Z,16.12
2022-08-24T06:08:51.910Z,16.40
2022-08-24T06:13:59.047Z,16.65
2022-08-24T06:19:03.375Z,16.84
2022-08-24T06:24:06.603Z,17.07
2022-08-24T06:29:09.433Z,17.36
2022-08-24T06:34:19.265Z,17.66
2022-08-24T06:39:21.086Z,17.85
2022-08-24T06:44:24.957Z,18.12
2022-08-24T06:49:37.258Z,18.33
2022-08-24T06:54:39.506Z,18.50
2022-08-24T06:59:43.189Z,18.66
2022-08-24T07:04:46.769Z,18.87
2022-08-24T07:10:09.613Z,19.02
2022-08-24T07:15:16.388Z,19.18
2022-08-24T07:20:21.433Z,19.50
2022-08-24T07:26:08.070Z,19.67
2022-08-24T07:31:13.738Z,19.81
2022-08-24T07:36:23.198Z,19.98
2022-08-24T07:46:52.543Z,20.32
2022-08-24T07:51:55.096Z,20.39
2022-08-24T07:57:00.120Z,20.47
2022-08-24T08:02:03.637Z,20.61
2022-08-24T08:07:07.319Z,20.71
2022-08-24T08:12:11.038Z,20.87
2022-08-24T08:17:24.136Z,20.93
2022-08-24T08:22:45.533Z,21.26
2022-08-24T08:28:18.634Z,21.46
2022-08-24T08:33:28.745Z,21.45
2022-08-24T08:38:30.892Z,21.55
2022-08-24T08:43:43.759Z,21.72
2022-08-24T08:48:56.268Z,22.03
2022-08-24T08:54:08.233Z,22.27
2022-08-24T08:59:41.646Z,22.54
2022-08-24T09:05:10.325Z,22.79
2022-08-24T09:10:13.667Z,23.17
2022-08-24T09:15:39.306Z,23.12
2022-08-24T09:20:59.715Z,23.12
2022-08-24T09:26:29.108Z,23.03
2022-08-24T09:32:00.664Z,23.05
2022-08-24T09:37:05.239Z,23.06
2022-08-24T09:42:48.217Z,23.39
2022-08-24T09:48:30.178Z,23.56
2022-08-24T09:53:54.737Z,23.90
2022-08-24T09:59:19.406Z,23.70
2022-08-24T10:04:36.031Z,23.92
2022-08-24T10:10:15.834Z,24.26
2022-08-24T10:15:28.023Z,24.42
2022-08-24T10:21:01.453Z,24.50
2022-08-24T10:26:15.274Z,24.55
2022-08-24T10:31:38.839Z,24.64
2022-08-24T10:37:09.053Z,24.58
2022-08-24T10:42:48.222Z,24.73
2022-08-24T10:48:17.851Z,24.81
2022-08-24T10:53:27.916Z,25.02
2022-08-24T10:58:43.627Z,25.15
2022-08-24T11:03:58.299Z,25.38
2022-08-24T11:09:05.357Z,25.51
2022-08-24T11:14:22.072Z,25.18
2022-08-24T11:19:26.855Z,24.85
2022-08-24T11:24:45.990Z,24.73
2022-08-24T11:29:53.623Z,24.96
2022-08-24T11:34:55.945Z,25.44
2022-08-24T11:39:57.727Z,25.55
2022-08-24T11:45:23.529Z,25.46
2022-08-24T11:50:35.668Z,25.54
2022-08-24T11:56:00.298Z,25.55
2022-08-24T12:01:14.631Z,25.89
2022-08-24T12:06:36.806Z,26.27
2022-08-24T12:11:51.984Z,26.54
2022-08-24T12:17:12.734Z,26.63
2022-08-24T12:22:19.945Z,26.57
2022-08-24T12:27:28.969Z,26.36
2022-08-24T12:32:38.833Z,26.06
2022-08-24T12:37:47.736Z,26.05
2022-08-24T12:42:54.670Z,26.26
2022-08-24T12:48:24.218Z,26.29
2022-08-24T12:53:32.741Z,26.42
2022-08-24T12:58:54.273Z,26.16
2022-08-24T13:04:12.993Z,25.91
2022-08-24T13:09:38.126Z,25.90
2022-08-24T13:14:45.270Z,26.22
2022-08-24T13:20:38.934Z,26.97
2022-08-24T13:25:52.616Z,26.79
2022-08-24T13:31:02.607Z,26.33
2022-08-24T13:36:08.983Z,26.19
2022-08-24T13:41:32.481Z,26.01
2022-08-24T13:47:00.443Z,25.96
2022-08-24T13:52:17.944Z,25.93
2022-08-24T13:57:36.756Z,26.08
2022-08-24T14:03:21.657Z,26.43
2022-08-24T14:08:39.270Z,26.50
2022-08-24T14:14:08.138Z,26.95
2022-08-24T14:19:45.735Z,27.01
2022-08-24T14:25:21.918Z,27.03
2022-08-24T14:30:39.917Z,27.31
2022-08-24T14:35:41.673Z,27.88
2022-08-24T14:41:23.040Z,27.95
2022-08-24T14:46:49.692Z,27.73
2022-08-24T14:51:57.085Z,27.17
2022-08-24T14:57:18.380Z,26.81
2022-08-24T15:02:25.749Z,26.65
2022-08-24T15:07:31.269Z,26.51
2022-08-24T15:12:48.655Z,26.38
2022-08-24T15:17:53.097Z,26.29
2022-08-24T15:23:04.462Z,26.34
2022-08-24T15:28:23.188Z,26.23
2022-08-24T15:33:25.635Z,26.17
2022-08-24T15:38:30.535Z,26.31
2022-08-24T15:43:34.653Z,26.50
2022-08-24T15:48:37.284Z,26.30
2022-08-24T15:53:42.469Z,26.63
2022-08-24T15:58:44.221Z,26.82
2022-08-24T16:03:50.475Z,26.93
2022-08-24T16:08:58.308Z,26.87
2022-08-24T16:14:00.776Z,26.88
2022-08-24T16:19:08.432Z,26.89
2022-08-24T16:24:28.442Z,26.86
2022-08-24T16:36:36.912Z,27.08
2022-08-24T16:41:40.040Z,27.10
2022-08-24T16:46:41.741Z,26.82
2022-08-24T16:51:49.954Z,26.68
2022-08-24T16:56:53.402Z,26.44
2022-08-24T17:01:55.766Z,26.17
2022-08-24T17:06:57.938Z,25.83
2022-08-24T17:17:35.172Z,25.31
2022-08-24T17:22:37.327Z,25.11
2022-08-24T17:27:39.220Z,24.94
2022-08-24T17:43:57.233Z,24.69
2022-08-24T17:48:59.733Z,24.32
2022-08-24T17:54:01.621Z,23.99
2022-08-24T17:59:24.756Z,23.54
2022-08-24T18:04:29.878Z,23.06
2022-08-24T18:10:34.448Z,22.74
2022-08-24T18:15:36.594Z,22.52
2022-08-24T18:20:40.699Z,22.48
2022-08-24T18:25:48.917Z,22.20
2022-08-24T18:31:16.468Z,21.88
2022-08-24T18:36:18.902Z,21.82
2022-08-24T18:41:21.188Z,21.73
2022-08-24T18:46:23.070Z,21.58
2022-08-24T18:51:27.823Z,21.36
2022-08-24T18:56:36.710Z,21.10
2022-08-24T19:02:10.836Z,21.06
2022-08-24T19:07:13.629Z,21.12
2022-08-24T19:12:15.795Z,21.01
2022-08-24T19:17:17.588Z,20.90
2022-08-24T19:22:20.172Z,21.04
2022-08-24T19:27:24.180Z,21.08
2022-08-24T19:32:29.212Z,21.01
2022-08-24T19:37:31.283Z,20.97
2022-08-24T19:42:33.177Z,20.96
2022-08-24T19:47:35.449Z,20.89
